Time;durP1;ratioP1;P1;durP2;ratioP2;P2;SDS_P1;SDS_P2;PMS_P1;PMS_P2;Temp;Humidity;BMP_temperature;BMP_pressure;BME280_temperature;BME280_humidity;BME280_pressure;Samples;Min_cycle;Max_cycle;Signal;HPM_P1;HPM_P2
2023/08/05 00:00:41;;;;;;;4.72;3.35;;;15.20;99.90;;;;;;5038323;28;20095;-66
2023/08/05 00:03:09;;;;;;;7.15;3.97;;;15.10;99.90;;;;;;5022002;28;20045;-67
2023/08/05 00:05:37;;;;;;;6.55;3.70;;;15.10;99.90;;;;;;5038446;28;20048;-66
2023/08/05 00:08:05;;;;;;;6.70;3.60;;;14.90;99.90;;;;;;5021135;28;20055;-66
2023/08/05 00:10:31;;;;;;;7.97;4.05;;;14.80;99.90;;;;;;5038372;28;20346;-66
2023/08/05 00:12:58;;;;;;;8.38;3.83;;;14.80;99.90;;;;;;5038193;28;20056;-66
2023/08/05 00:15:24;;;;;;;5.45;4.03;;;14.80;99.90;;;;;;5021612;28;20052;-66
2023/08/05 00:17:50;;;;;;;7.10;3.63;;;14.80;99.90;;;;;;5054759;28;20362;-66
2023/08/05 00:20:16;;;;;;;5.90;3.78;;;14.70;99.90;;;;;;5037952;28;20053;-66
2023/08/05 00:22:43;;;;;;;7.32;3.67;;;14.70;99.90;;;;;;5038322;28;20049;-67
2023/08/05 00:25:09;;;;;;;5.90;4.10;;;14.60;99.90;;;;;;5038148;28;20045;-66
2023/08/05 00:27:37;;;;;;;5.47;3.40;;;14.70;99.90;;;;;;5037534;28;20063;-67
2023/08/05 00:30:03;;;;;;;7.05;4.18;;;14.60;99.90;;;;;;5037938;28;20083;-67
2023/08/05 00:32:30;;;;;;;5.80;3.88;;;14.70;99.90;;;;;;5038061;28;20122;-67
2023/08/05 00:34:56;;;;;;;8.05;3.83;;;14.70;99.90;;;;;;5021100;28;20500;-67
2023/08/05 00:37:22;;;;;;;7.47;4.18;;;14.60;99.90;;;;;;5020328;28;20044;-66
2023/08/05 00:39:48;;;;;;;6.95;4.45;;;14.50;99.90;;;;;;5037510;28;20052;-66
2023/08/05 00:42:18;;;;;;;6.20;4.13;;;14.50;99.90;;;;;;5037704;28;20057;-68
2023/08/05 00:44:47;;;;;;;8.80;4.03;;;14.40;99.90;;;;;;5037521;28;20469;-66
2023/08/05 00:47:17;;;;;;;8.48;4.55;;;14.50;99.90;;;;;;5037026;28;20425;-67
2023/08/05 00:49:45;;;;;;;5.53;3.50;;;14.40;99.90;;;;;;5037546;28;20448;-67
2023/08/05 00:52:12;;;;;;;6.05;4.60;;;14.30;99.90;;;;;;5037609;28;20052;-67
2023/08/05 00:54:38;;;;;;;8.02;3.97;;;14.30;99.90;;;;;;5037516;28;20095;-66
2023/08/05 00:57:06;;;;;;;6.95;3.42;;;14.30;99.90;;;;;;5036933;28;20049;-66
2023/08/05 00:59:32;;;;;;;5.78;3.90;;;14.30;99.90;;;;;;5037245;28;20045;-66
2023/08/05 01:01:59;;;;;;;6.47;4.03;;;14.20;99.90;;;;;;5036629;28;20052;-67
2023/08/05 01:04:25;;;;;;;8.07;4.35;;;14.20;99.90;;;;;;5020731;28;20429;-66
2023/08/05 01:06:54;;;;;;;7.18;3.88;;;14.20;99.90;;;;;;5036515;28;20359;-66
2023/08/05 01:09:21;;;;;;;8.32;4.15;;;14.20;99.90;;;;;;5037176;28;20527;-66
2023/08/05 01:11:47;;;;;;;5.35;4.13;;;14.20;99.90;;;;;;5037081;28;20103;-66
2023/08/05 01:14:14;;;;;;;6.00;3.85;;;14.20;99.90;;;;;;5037200;28;20056;-66
2023/08/05 01:16:42;;;;;;;7.57;4.25;;;14.20;99.90;;;;;;5036239;28;20052;-67
2023/08/05 01:19:19;;;;;;;6.78;4.38;;;14.20;99.90;;;;;;5036985;28;20481;-67
2023/08/05 01:22:02;;;;;;;8.90;4.47;;;14.20;99.90;;;;;;5021382;28;20049;-67
2023/08/05 01:24:55;;;;;;;7.50;4.20;;;14.20;99.90;;;;;;5037138;28;20052;-67
2023/08/05 01:27:23;;;;;;;6.53;4.07;;;14.10;99.90;;;;;;5050372;28;20187;-66
2023/08/05 01:29:50;;;;;;;6.65;3.97;;;14.30;99.90;;;;;;5036631;28;20086;-66
2023/08/05 01:32:19;;;;;;;7.80;4.00;;;14.30;99.90;;;;;;5037027;28;20126;-67
2023/08/05 01:34:46;;;;;;;7.13;4.35;;;14.30;99.90;;;;;;5036583;28;20045;-66
2023/08/05 01:37:13;;;;;;;6.00;4.03;;;14.30;99.90;;;;;;5036045;28;20048;-66
2023/08/05 01:39:39;;;;;;;9.57;4.30;;;14.30;99.90;;;;;;5036720;28;20052;-67
2023/08/05 01:42:07;;;;;;;8.90;4.07;;;14.40;99.90;;;;;;5036141;28;20061;-66
2023/08/05 01:44:33;;;;;;;9.10;4.28;;;14.30;99.90;;;;;;5036557;28;20452;-67
2023/08/05 01:47:00;;;;;;;6.60;3.90;;;14.30;99.90;;;;;;5025260;28;20053;-66
2023/08/05 01:49:26;;;;;;;7.32;4.63;;;14.30;99.90;;;;;;5016552;28;20060;-67
2023/08/05 01:51:52;;;;;;;6.93;4.20;;;14.30;99.90;;;;;;5016185;28;20092;-66
2023/08/05 01:54:18;;;;;;;8.25;4.18;;;14.40;99.90;;;;;;4980724;28;20060;-68
2023/08/05 01:56:44;;;;;;;7.63;4.25;;;14.30;99.90;;;;;;5003580;28;20103;-66
2023/08/05 01:59:11;;;;;;;5.40;4.10;;;14.30;99.90;;;;;;5016389;28;20061;-67
2023/08/05 02:01:48;;;;;;;5.30;3.67;;;14.30;99.90;;;;;;5016503;28;20068;-67
2023/08/05 02:04:14;;;;;;;6.85;4.22;;;14.30;99.90;;;;;;5034174;28;20049;-67
2023/08/05 02:06:41;;;;;;;8.10;4.15;;;14.40;99.90;;;;;;5026739;28;20045;-67
2023/08/05 02:09:08;;;;;;;6.32;3.75;;;14.30;99.90;;;;;;4996651;28;20263;-66
2023/08/05 02:11:35;;;;;;;6.55;3.97;;;14.40;99.90;;;;;;5010402;28;20057;-66
2023/08/05 02:14:05;;;;;;;8.77;4.57;;;14.40;99.90;;;;;;5015258;28;20050;-66
2023/08/05 02:16:34;;;;;;;7.07;4.32;;;14.40;99.90;;;;;;5010421;28;20506;-66
2023/08/05 02:19:01;;;;;;;7.47;4.40;;;14.50;99.90;;;;;;4996505;28;20054;-66
2023/08/05 02:21:29;;;;;;;6.18;4.03;;;14.40;99.90;;;;;;4996213;28;20077;-67
2023/08/05 02:23:55;;;;;;;6.70;4.32;;;14.40;99.90;;;;;;4996353;28;20050;-67
2023/08/05 02:26:22;;;;;;;6.78;4.38;;;14.50;99.90;;;;;;4999492;28;20099;-66
2023/08/05 02:29:20;;;;;;;7.30;4.38;;;14.50;99.90;;;;;;5015698;28;20049;-67
2023/08/05 02:31:46;;;;;;;8.90;4.85;;;14.40;99.90;;;;;;5015766;28;20057;-65
2023/08/05 02:34:12;;;;;;;5.40;4.03;;;14.50;99.90;;;;;;5015844;28;20053;-67
2023/08/05 02:36:39;;;;;;;6.32;4.13;;;14.40;99.90;;;;;;5009274;28;20379;-67
2023/08/05 02:39:05;;;;;;;10.35;4.65;;;14.50;99.90;;;;;;4996467;28;20108;-66
2023/08/05 02:41:31;;;;;;;9.00;4.93;;;14.40;99.90;;;;;;4997232;28;20050;-66
2023/08/05 02:43:57;;;;;;;6.40;4.70;;;14.40;99.90;;;;;;5033002;28;20406;-68
2023/08/05 02:46:23;;;;;;;8.73;4.20;;;14.50;99.90;;;;;;5015088;28;20041;-66
2023/08/05 02:48:50;;;;;;;9.50;4.55;;;14.50;99.90;;;;;;5015385;28;20056;-66
2023/08/05 02:51:16;;;;;;;7.97;4.40;;;14.50;99.90;;;;;;5015563;28;20053;-68
2023/08/05 02:53:44;;;;;;;7.78;4.60;;;14.60;99.90;;;;;;5015703;28;20088;-66
2023/08/05 02:56:10;;;;;;;8.52;4.47;;;14.60;99.90;;;;;;5014816;28;20683;-68
2023/08/05 02:58:36;;;;;;;7.15;4.47;;;14.60;99.90;;;;;;5015540;28;20115;-66
2023/08/05 03:01:08;;;;;;;8.02;4.65;;;14.60;99.90;;;;;;5015483;28;20119;-67
2023/08/05 03:03:37;;;;;;;9.95;4.28;;;14.60;99.90;;;;;;5015399;28;20049;-66
2023/08/05 03:06:04;;;;;;;8.05;4.32;;;14.60;99.90;;;;;;5014695;28;20425;-67
2023/08/05 03:08:31;;;;;;;9.20;4.82;;;14.50;99.90;;;;;;5015097;28;20057;-66
2023/08/05 03:11:01;;;;;;;6.55;3.97;;;14.60;99.90;;;;;;5015380;28;20053;-67
2023/08/05 03:13:28;;;;;;;5.97;4.50;;;14.60;99.90;;;;;;5015265;28;20473;-67
2023/08/05 03:15:54;;;;;;;9.43;4.55;;;14.60;99.90;;;;;;4998501;28;20057;-67
2023/08/05 03:18:21;;;;;;;8.30;4.15;;;14.60;99.90;;;;;;5014507;28;20389;-67
2023/08/05 03:20:48;;;;;;;6.03;4.07;;;14.60;99.90;;;;;;5015077;28;20502;-67
2023/08/05 03:23:14;;;;;;;8.57;4.03;;;14.60;99.90;;;;;;5014920;28;20064;-66
2023/08/05 03:25:40;;;;;;;7.38;4.57;;;14.70;99.90;;;;;;5015002;28;20045;-69
2023/08/05 03:28:06;;;;;;;5.93;4.30;;;14.70;99.90;;;;;;5014367;28;20116;-66
2023/08/05 03:30:33;;;;;;;7.22;3.92;;;14.70;99.90;;;;;;4999073;28;20458;-66
2023/08/05 03:33:00;;;;;;;8.93;3.78;;;14.70;99.90;;;;;;4998694;28;20061;-66
2023/08/05 03:35:26;;;;;;;7.03;4.25;;;14.80;99.90;;;;;;5014807;28;20112;-67
2023/08/05 03:37:53;;;;;;;6.80;3.85;;;14.80;99.90;;;;;;5014214;28;20165;-66
2023/08/05 03:40:20;;;;;;;5.57;3.70;;;14.80;99.90;;;;;;5014614;28;20470;-66
2023/08/05 03:42:46;;;;;;;6.97;4.20;;;14.80;99.90;;;;;;5010006;28;20118;-66
2023/08/05 03:45:13;;;;;;;6.07;4.03;;;14.90;99.90;;;;;;5017965;28;20056;-67
2023/08/05 03:47:40;;;;;;;7.60;4.30;;;14.90;99.90;;;;;;5034357;28;20099;-67
2023/08/05 03:50:08;;;;;;;6.93;4.15;;;14.80;99.90;;;;;;5035017;28;20501;-66
2023/08/05 03:52:35;;;;;;;7.03;3.83;;;14.80;99.90;;;;;;5018534;28;20045;-66
2023/08/05 03:55:02;;;;;;;6.35;4.07;;;14.80;99.90;;;;;;5034606;28;20053;-66
2023/08/05 03:57:29;;;;;;;7.97;4.22;;;14.80;99.90;;;;;;5033528;28;20048;-67
2023/08/05 03:59:56;;;;;;;4.75;3.67;;;14.90;99.90;;;;;;5034549;28;20053;-66
2023/08/05 04:02:22;;;;;;;8.52;4.20;;;14.90;99.90;;;;;;5034139;28;20053;-66
2023/08/05 04:04:50;;;;;;;9.88;3.90;;;14.90;99.90;;;;;;5034315;28;20388;-67
2023/08/05 04:07:19;;;;;;;7.22;4.63;;;14.90;99.90;;;;;;5017449;28;20123;-66
2023/08/05 04:09:48;;;;;;;6.95;4.88;;;14.80;99.90;;;;;;5017917;28;20063;-66
2023/08/05 04:12:15;;;;;;;8.77;4.72;;;15.00;99.90;;;;;;5034434;28;20053;-67
2023/08/05 04:14:43;;;;;;;7.45;5.03;;;14.90;99.90;;;;;;5017880;28;20059;-66
2023/08/05 04:17:14;;;;;;;8.40;5.40;;;14.80;99.90;;;;;;5034007;28;20381;-67
2023/08/05 04:19:42;;;;;;;6.63;4.63;;;14.80;99.90;;;;;;5034407;28;20457;-66
2023/08/05 04:22:08;;;;;;;10.40;5.10;;;14.80;99.90;;;;;;5034041;28;20048;-66
2023/08/05 04:24:36;;;;;;;9.70;5.50;;;14.80;99.90;;;;;;5034242;28;20084;-66
2023/08/05 04:27:03;;;;;;;6.82;4.90;;;14.80;99.90;;;;;;5050914;28;20053;-66
2023/08/05 04:29:30;;;;;;;8.60;5.15;;;14.90;99.90;;;;;;5034227;28;20053;-67
2023/08/05 04:31:57;;;;;;;8.57;5.10;;;14.80;99.90;;;;;;5034365;28;20048;-66
2023/08/05 04:34:23;;;;;;;8.88;5.60;;;14.90;99.90;;;;;;5017696;28;20053;-66
2023/08/05 04:36:51;;;;;;;6.72;5.15;;;14.80;99.90;;;;;;5034028;28;20385;-68
2023/08/05 04:39:19;;;;;;;6.45;4.70;;;14.90;99.90;;;;;;5037423;28;20053;-67
2023/08/05 04:41:45;;;;;;;8.70;5.13;;;14.90;99.90;;;;;;5037732;28;20065;-66
2023/08/05 04:44:12;;;;;;;9.00;5.43;;;15.00;99.90;;;;;;5021175;28;20045;-66
2023/08/05 04:46:38;;;;;;;8.07;4.70;;;15.10;99.90;;;;;;5031093;28;20068;-67
2023/08/05 04:49:08;;;;;;;8.05;5.30;;;15.10;99.90;;;;;;5001867;28;20045;-66
2023/08/05 04:51:35;;;;;;;6.10;4.88;;;15.10;99.90;;;;;;5001606;28;20131;-66
2023/08/05 04:54:05;;;;;;;8.75;5.35;;;15.20;99.90;;;;;;5017693;28;20053;-68
2023/08/05 04:56:33;;;;;;;7.88;4.93;;;15.10;99.90;;;;;;5013538;28;20089;-64
2023/08/05 04:58:59;;;;;;;6.22;4.65;;;15.20;99.90;;;;;;4998187;28;20491;-66
2023/08/05 05:01:27;;;;;;;8.15;4.95;;;15.20;99.90;;;;;;4998086;28;20383;-65
2023/08/05 05:03:53;;;;;;;8.32;5.05;;;15.40;99.90;;;;;;4997952;28;20053;-65
2023/08/05 05:06:19;;;;;;;7.75;4.90;;;15.30;99.90;;;;;;4999355;28;20838;-65
2023/08/05 05:08:45;;;;;;;7.57;4.85;;;15.50;99.90;;;;;;5017409;28;20050;-64
2023/08/05 05:11:12;;;;;;;7.00;4.60;;;15.70;99.90;;;;;;5017259;28;20049;-66
2023/08/05 05:13:39;;;;;;;7.25;4.82;;;16.20;99.90;;;;;;5001240;28;20057;-65
2023/08/05 05:16:05;;;;;;;8.48;4.70;;;16.60;99.90;;;;;;5016908;28;20127;-65
2023/08/05 05:18:31;;;;;;;7.45;4.07;;;16.80;99.90;;;;;;4981356;28;20061;-65
2023/08/05 05:21:00;;;;;;;8.00;4.57;;;16.70;99.90;;;;;;4997669;28;20481;-65
2023/08/05 05:23:26;;;;;;;7.45;4.10;;;16.60;99.90;;;;;;4981363;28;20101;-64
2023/08/05 05:25:52;;;;;;;6.68;4.28;;;16.40;99.90;;;;;;4997273;28;20050;-65
2023/08/05 05:28:19;;;;;;;7.35;4.55;;;16.30;99.90;;;;;;4999310;28;20048;-65
2023/08/05 05:30:46;;;;;;;6.05;3.85;;;16.20;99.90;;;;;;5017135;28;20081;-65
2023/08/05 05:33:12;;;;;;;9.43;4.22;;;16.20;99.90;;;;;;5017339;28;20045;-65
2023/08/05 05:35:38;;;;;;;7.45;4.40;;;16.10;99.90;;;;;;5017205;28;20060;-65
2023/08/05 05:38:04;;;;;;;6.57;4.45;;;16.00;99.90;;;;;;5000372;28;20112;-65
2023/08/05 05:40:31;;;;;;;6.05;4.18;;;16.20;99.90;;;;;;4997486;28;20058;-65
2023/08/05 05:42:58;;;;;;;7.32;4.38;;;16.20;99.90;;;;;;5039800;28;20052;-66
2023/08/05 05:45:24;;;;;;;7.45;4.70;;;16.30;99.90;;;;;;5036536;28;20505;-65
2023/08/05 05:47:51;;;;;;;4.90;4.28;;;16.60;99.90;;;;;;5050008;28;20048;-65
2023/08/05 05:50:19;;;;;;;6.85;4.63;;;16.80;99.90;;;;;;5039524;28;20369;-64
2023/08/05 05:52:48;;;;;;;8.93;4.63;;;16.90;99.90;;;;;;5022228;28;20053;-65
2023/08/05 05:55:15;;;;;;;9.15;4.55;;;17.00;99.90;;;;;;5036272;28;20155;-66
2023/08/05 05:57:44;;;;;;;6.78;4.50;;;16.90;99.90;;;;;;5048604;28;20044;-65
2023/08/05 06:00:11;;;;;;;6.20;4.57;;;17.00;99.90;;;;;;5056886;28;20052;-67
2023/08/05 06:02:37;;;;;;;5.93;4.50;;;17.00;99.90;;;;;;5056165;28;20056;-64
2023/08/05 06:05:04;;;;;;;8.10;5.28;;;17.00;99.90;;;;;;5070758;28;20054;-65
2023/08/05 06:07:30;;;;;;;7.15;4.55;;;17.10;99.90;;;;;;5053586;28;20056;-65
2023/08/05 06:09:57;;;;;;;6.88;4.82;;;17.10;99.90;;;;;;5055380;28;20118;-64
2023/08/05 06:12:30;;;;;;;9.55;4.43;;;17.10;99.90;;;;;;5055714;28;20051;-65
2023/08/05 06:14:56;;;;;;;7.10;5.05;;;17.00;99.90;;;;;;5055968;28;20052;-65
2023/08/05 06:17:26;;;;;;;8.65;4.78;;;17.00;99.90;;;;;;5053356;28;20049;-66
2023/08/05 06:19:54;;;;;;;6.88;4.25;;;17.00;99.90;;;;;;5055266;28;20061;-65
2023/08/05 06:22:24;;;;;;;5.80;4.32;;;17.00;99.90;;;;;;5059058;28;20115;-64
2023/08/05 06:24:51;;;;;;;8.63;4.15;;;17.00;99.90;;;;;;5044529;28;20059;-64
2023/08/05 06:27:17;;;;;;;7.90;4.95;;;16.90;99.90;;;;;;5045606;28;20052;-64
2023/08/05 06:29:44;;;;;;;6.40;4.65;;;16.90;99.90;;;;;;5061570;28;20045;-65
2023/08/05 06:32:12;;;;;;;6.55;4.40;;;16.80;99.90;;;;;;5061608;28;20044;-64
2023/08/05 06:34:38;;;;;;;6.22;4.60;;;16.80;99.90;;;;;;5065898;28;20045;-64
2023/08/05 06:37:05;;;;;;;8.95;4.68;;;16.70;99.90;;;;;;5070903;28;20071;-64
2023/08/05 06:39:35;;;;;;;6.88;4.80;;;16.90;99.90;;;;;;5062678;28;20052;-64
2023/08/05 06:42:02;;;;;;;8.52;4.90;;;16.90;99.90;;;;;;5058524;28;20056;-65
2023/08/05 06:44:29;;;;;;;7.97;4.47;;;17.10;99.90;;;;;;5060316;28;20051;-64
2023/08/05 06:46:55;;;;;;;7.40;4.72;;;17.50;99.90;;;;;;5058960;28;20392;-65
2023/08/05 06:49:21;;;;;;;6.13;4.22;;;17.70;99.90;;;;;;5062944;28;20377;-66
2023/08/05 06:51:50;;;;;;;6.90;4.13;;;17.90;99.90;;;;;;5062549;28;20056;-64
2023/08/05 06:54:17;;;;;;;7.55;4.28;;;18.10;99.90;;;;;;5046409;28;20051;-65
2023/08/05 06:56:43;;;;;;;6.32;3.90;;;18.20;99.90;;;;;;5061543;28;20040;-64
2023/08/05 06:59:09;;;;;;;8.02;4.03;;;18.10;99.90;;;;;;5057201;28;20357;-66
2023/08/05 07:01:36;;;;;;;5.82;3.78;;;18.00;99.90;;;;;;5054571;28;20040;-65
2023/08/05 07:04:02;;;;;;;6.45;3.95;;;18.00;99.90;;;;;;5054618;28;20052;-65
2023/08/05 07:06:29;;;;;;;5.05;3.60;;;17.90;99.90;;;;;;5052769;28;20052;-66
2023/08/05 07:08:56;;;;;;;5.72;3.60;;;18.20;99.90;;;;;;5054564;28;20060;-64
2023/08/05 07:11:27;;;;;;;6.35;3.58;;;18.50;99.90;;;;;;5054797;28;20048;-65
2023/08/05 07:13:53;;;;;;;;;;;18.80;99.90;;;;;;5054896;28;20044;-64
2023/08/05 07:16:19;;;;;;;5.88;3.45;;;19.20;99.90;;;;;;5053181;28;19954;-66
2023/08/05 07:18:46;;;;;;;6.90;3.70;;;19.30;99.90;;;;;;5051974;28;20131;-65
2023/08/05 07:21:15;;;;;;;6.65;3.80;;;19.10;99.90;;;;;;5054494;28;20048;-66
2023/08/05 07:23:41;;;;;;;5.28;3.20;;;19.00;99.90;;;;;;5037271;28;20047;-65
2023/08/05 07:26:09;;;;;;;6.32;3.92;;;18.80;99.90;;;;;;5037876;28;20060;-65
2023/08/05 07:28:35;;;;;;;7.47;3.22;;;18.70;99.90;;;;;;5054677;28;20127;-65
2023/08/05 07:31:07;;;;;;;5.40;3.65;;;18.60;99.90;;;;;;5054841;28;20053;-64
2023/08/05 07:33:33;;;;;;;6.72;3.40;;;18.70;99.90;;;;;;5053930;28;20045;-66
2023/08/05 07:36:18;;;;;;;3.97;3.03;;;18.50;99.90;;;;;;5053595;28;20110;-65
2023/08/05 07:38:47;;;;;;;5.18;3.00;;;18.40;99.90;;;;;;5037841;28;20071;-65
2023/08/05 07:41:15;;;;;;;6.75;3.42;;;18.30;99.90;;;;;;5054329;28;20048;-66
2023/08/05 07:43:43;;;;;;;6.45;3.78;;;18.50;99.90;;;;;;5051518;28;20059;-65
2023/08/05 07:46:13;;;;;;;7.18;3.13;;;18.50;99.90;;;;;;5037362;28;20048;-65
2023/08/05 07:48:40;;;;;;;5.80;3.53;;;18.60;99.90;;;;;;5038451;28;20453;-66
2023/08/05 07:51:06;;;;;;;5.80;3.22;;;18.70;99.90;;;;;;5038121;28;20103;-64
2023/08/05 07:53:35;;;;;;;6.18;3.33;;;18.80;99.90;;;;;;5054360;28;20114;-65
2023/08/05 07:56:16;;;;;;;6.25;3.40;;;19.00;99.90;;;;;;5054089;28;20048;-65
2023/08/05 07:58:46;;;;;;;6.30;3.20;;;19.10;99.90;;;;;;5054860;28;20113;-65
2023/08/05 08:01:23;;;;;;;4.30;2.90;;;19.20;99.90;;;;;;5054244;28;20354;-66
2023/08/05 08:03:54;;;;;;;5.57;3.42;;;19.10;99.90;;;;;;5054779;28;20456;-66
2023/08/05 08:06:21;;;;;;;6.70;3.20;;;19.10;99.90;;;;;;5052871;28;20045;-66
2023/08/05 08:08:47;;;;;;;7.53;3.33;;;19.20;99.90;;;;;;5054059;28;20056;-65
2023/08/05 08:11:14;;;;;;;9.70;3.63;;;19.20;99.90;;;;;;5054378;28;20472;-65
2023/08/05 08:13:41;;;;;;;6.18;3.10;;;19.20;99.90;;;;;;5058099;28;20056;-65
2023/08/05 08:16:07;;;;;;;5.88;3.10;;;19.10;99.90;;;;;;5058331;28;20502;-65
2023/08/05 08:18:34;;;;;;;7.40;3.67;;;18.90;99.90;;;;;;5074984;28;21165;-65
2023/08/05 08:21:00;;;;;;;5.72;3.30;;;18.90;99.90;;;;;;5075356;28;20049;-65
2023/08/05 08:23:26;;;;;;;4.57;2.92;;;18.90;99.90;;;;;;5075856;28;20457;-66
2023/08/05 08:25:56;;;;;;;5.43;3.33;;;19.00;99.90;;;;;;5057944;28;20044;-65
2023/08/05 08:28:25;;;;;;;9.10;3.38;;;19.20;99.90;;;;;;5057258;28;20041;-64
2023/08/05 08:30:56;;;;;;;5.15;3.13;;;19.20;99.90;;;;;;5039881;28;20102;-65
2023/08/05 08:33:24;;;;;;;5.53;2.80;;;19.50;99.90;;;;;;5075064;28;20052;-65
2023/08/05 08:35:51;;;;;;;4.72;2.72;;;19.40;99.90;;;;;;5074902;28;20052;-65
2023/08/05 08:38:18;;;;;;;7.60;3.05;;;19.60;99.90;;;;;;5041067;28;20473;-65
2023/08/05 08:40:49;;;;;;;5.20;2.75;;;19.80;99.90;;;;;;5056479;28;20053;-65
2023/08/05 08:43:17;;;;;;;;;;;19.80;99.90;;;;;;5057691;28;20044;-65
2023/08/05 08:45:44;;;;;;;4.43;3.00;;;19.80;99.90;;;;;;5039648;28;19935;-66
2023/08/05 08:48:11;;;;;;;6.82;3.15;;;19.60;99.90;;;;;;5037367;28;20388;-66
2023/08/05 08:50:39;;;;;;;4.43;2.90;;;19.80;99.90;;;;;;5057045;28;20044;-65
2023/08/05 08:53:08;;;;;;;5.18;3.28;;;19.90;99.90;;;;;;5057075;28;20052;-66
2023/08/05 08:55:36;;;;;;;6.13;3.30;;;20.10;99.90;;;;;;5040025;28;20052;-65
2023/08/05 08:58:02;;;;;;;5.30;3.15;;;20.00;99.90;;;;;;5074558;28;20052;-65
2023/08/05 09:00:30;;;;;;;7.00;3.13;;;20.30;99.90;;;;;;5074786;28;20052;-65
2023/08/05 09:03:00;;;;;;;9.30;3.78;;;20.30;99.90;;;;;;5056965;28;20145;-65
2023/08/05 09:05:44;;;;;;;6.85;3.60;;;20.60;99.90;;;;;;5056860;28;20057;-66
2023/08/05 09:08:10;;;;;;;6.63;4.13;;;20.70;99.90;;;;;;5025066;28;20052;-68
2023/08/05 09:10:38;;;;;;;4.72;3.28;;;20.90;99.90;;;;;;5037230;28;20045;-65
2023/08/05 09:13:09;;;;;;;8.35;3.28;;;21.00;99.90;;;;;;5020822;28;20057;-66
2023/08/05 09:15:39;;;;;;;4.03;3.33;;;21.00;99.90;;;;;;5054693;28;20049;-66
2023/08/05 09:18:07;;;;;;;5.45;3.97;;;21.00;99.90;;;;;;5069381;28;20052;-67
2023/08/05 09:20:37;;;;;;;6.32;3.55;;;20.90;99.90;;;;;;5074792;28;20098;-65
2023/08/05 09:23:10;;;;;;;6.50;3.83;;;20.80;99.90;;;;;;5074187;28;20048;-65
2023/08/05 09:25:41;;;;;;;5.90;3.60;;;20.80;99.90;;;;;;5056755;28;20049;-66
2023/08/05 09:28:10;;;;;;;6.25;3.72;;;20.90;99.90;;;;;;5059578;28;20121;-67
2023/08/05 09:30:37;;;;;;;5.35;3.55;;;20.90;99.90;;;;;;5036936;28;20103;-65
2023/08/05 09:33:04;;;;;;;5.70;3.58;;;20.90;99.90;;;;;;5036942;28;20052;-65
2023/08/05 09:35:30;;;;;;;5.93;3.75;;;21.00;99.90;;;;;;5054364;28;20067;-66
2023/08/05 09:37:57;;;;;;;5.25;3.50;;;21.10;99.90;;;;;;5067921;28;20056;-65
2023/08/05 09:40:36;;;;;;;6.63;4.35;;;21.10;99.90;;;;;;5056422;28;20055;-66
2023/08/05 09:43:03;;;;;;;5.85;3.97;;;21.00;99.90;;;;;;5056340;28;20060;-66
2023/08/05 09:45:33;;;;;;;4.93;4.03;;;21.20;99.90;;;;;;5056131;28;20465;-66
2023/08/05 09:48:09;;;;;;;6.53;4.03;;;21.30;99.90;;;;;;5042832;28;20056;-66
2023/08/05 09:50:40;;;;;;;4.07;3.67;;;21.50;99.90;;;;;;5036531;28;20041;-66
2023/08/05 09:53:10;;;;;;;7.18;4.35;;;21.80;99.90;;;;;;5036468;28;20049;-66
2023/08/05 09:55:37;;;;;;;7.00;4.97;;;21.80;99.90;;;;;;5019954;28;20045;-66
2023/08/05 09:58:07;;;;;;;8.15;4.47;;;21.60;99.90;;;;;;5050259;28;20063;-66
2023/08/05 10:00:40;;;;;;;5.30;4.60;;;21.80;99.90;;;;;;5056192;28;20048;-66
2023/08/05 10:03:13;;;;;;;7.50;5.25;;;21.80;99.90;;;;;;5056402;28;20106;-65
2023/08/05 10:05:44;;;;;;;5.68;4.57;;;21.60;99.90;;;;;;5055903;28;20059;-66
2023/08/05 10:08:12;;;;;;;8.57;5.28;;;21.70;99.90;;;;;;5040949;28;20056;-66
2023/08/05 10:10:41;;;;;;;5.72;4.38;;;21.50;99.90;;;;;;5019655;28;20053;-65
2023/08/05 10:13:17;;;;;;;9.02;5.05;;;21.50;99.90;;;;;;5036225;28;20099;-65
2023/08/05 10:15:49;;;;;;;6.75;4.72;;;21.50;99.90;;;;;;5035437;28;20049;-66
2023/08/05 10:18:17;;;;;;;5.95;4.45;;;21.40;99.90;;;;;;5036683;28;20148;-66
2023/08/05 10:20:50;;;;;;;6.63;4.35;;;21.60;99.90;;;;;;5035658;28;20060;-66
2023/08/05 10:23:17;;;;;;;5.95;4.43;;;21.80;99.90;;;;;;5020047;28;20048;-65
2023/08/05 10:25:48;;;;;;;5.93;4.70;;;22.00;99.90;;;;;;5035226;28;20120;-65
2023/08/05 10:28:23;;;;;;;6.95;4.75;;;22.20;99.90;;;;;;5068671;28;20368;-65
2023/08/05 10:30:50;;;;;;;6.90;4.32;;;22.30;99.90;;;;;;5073532;28;20102;-65
2023/08/05 10:33:17;;;;;;;4.70;4.20;;;22.40;99.90;;;;;;5073291;28;20079;-65
2023/08/05 10:35:44;;;;;;;4.30;3.90;;;22.40;99.90;;;;;;5071363;28;20056;-65
2023/08/05 10:38:22;;;;;;;6.63;5.18;;;22.50;99.90;;;;;;5054252;28;20060;-65
2023/08/05 10:41:00;;;;;;;5.85;5.03;;;22.30;99.90;;;;;;5052392;28;20051;-65
2023/08/05 10:43:41;;;;;;;5.82;5.05;;;22.40;99.90;;;;;;5055187;28;20106;-65
2023/08/05 10:46:07;;;;;;;7.45;5.75;;;22.30;99.90;;;;;;5038550;28;20060;-65
2023/08/05 10:48:42;;;;;;;5.75;5.20;;;22.30;99.90;;;;;;5054709;28;20461;-65
2023/08/05 10:51:19;;;;;;;7.78;4.88;;;22.30;99.90;;;;;;5035229;28;20389;-65
2023/08/05 10:53:59;;;;;;;7.20;4.72;;;22.50;99.90;;;;;;5053143;28;20048;-65
2023/08/05 10:56:32;;;;;;;5.45;4.75;;;22.70;99.90;;;;;;5053735;28;20052;-65
2023/08/05 10:59:01;;;;;;;4.85;4.38;;;22.80;99.90;;;;;;5035159;28;20559;-65
2023/08/05 11:01:56;;;;;;;5.70;4.55;;;22.90;99.90;;;;;;5018621;28;20049;-65
2023/08/05 11:04:31;;;;;;;6.55;4.93;;;22.70;99.90;;;;;;5035192;28;20048;-65
2023/08/05 11:07:00;;;;;;;5.28;4.63;;;22.60;99.90;;;;;;5035061;28;20523;-65
2023/08/05 11:09:27;;;;;;;6.50;5.05;;;22.60;99.90;;;;;;5051265;28;20109;-65
2023/08/05 11:11:53;;;;;;;6.05;4.60;;;22.50;99.90;;;;;;5071657;28;20051;-65
2023/08/05 11:14:19;;;;;;;6.32;4.35;;;22.50;99.90;;;;;;5053261;28;20465;-65
2023/08/05 11:16:46;;;;;;;6.22;3.72;;;22.60;99.90;;;;;;5049829;28;20461;-65
2023/08/05 11:19:13;;;;;;;5.47;3.42;;;22.70;99.90;;;;;;5050255;28;20528;-65
2023/08/05 11:21:46;;;;;;;5.30;3.55;;;22.80;99.90;;;;;;5049946;28;20056;-65
2023/08/05 11:24:19;;;;;;;5.00;3.47;;;22.90;99.90;;;;;;5049995;28;20049;-65
2023/08/05 11:26:49;;;;;;;4.10;3.10;;;22.70;99.90;;;;;;5052660;28;20068;-65
2023/08/05 11:29:15;;;;;;;3.10;2.80;;;22.90;99.90;;;;;;5070719;28;20052;-65
2023/08/05 11:31:51;;;;;;;5.03;3.22;;;23.00;99.90;;;;;;5070499;28;20372;-65
2023/08/05 11:34:21;;;;;;;5.13;3.13;;;22.90;99.90;;;;;;5071692;28;20125;-64
2023/08/05 11:36:55;;;;;;;3.40;2.83;;;23.00;99.90;;;;;;5070838;28;20057;-64
2023/08/05 11:39:23;;;;;;;4.95;3.25;;;23.10;99.90;;;;;;5072163;28;20480;-65
2023/08/05 11:41:50;;;;;;;4.10;3.45;;;23.10;99.90;;;;;;5072240;28;20083;-64
2023/08/05 11:44:17;;;;;;;4.93;2.83;;;23.40;99.90;;;;;;5072304;28;20036;-65
2023/08/05 11:46:44;;;;;;;5.22;2.90;;;23.30;99.90;;;;;;5071599;28;20053;-64
2023/08/05 11:49:13;;;;;;;4.68;2.75;;;23.50;99.90;;;;;;5056558;28;20053;-64
2023/08/05 11:51:50;;;;;;;5.22;3.05;;;23.50;99.90;;;;;;5056797;28;20053;-65
2023/08/05 11:54:23;;;;;;;;;;;23.50;99.90;;;;;;5076833;28;20065;-64
2023/08/05 11:56:49;;;;;;;3.60;2.78;;;23.40;99.90;;;;;;5072598;28;19924;-64
2023/08/05 11:59:16;;;;;;;4.35;2.90;;;23.40;99.90;;;;;;5075853;28;20106;-64
2023/08/05 12:01:42;;;;;;;5.20;2.85;;;23.30;99.90;;;;;;5073316;28;20098;-64
2023/08/05 12:04:09;;;;;;;3.72;2.55;;;23.50;99.90;;;;;;5075971;28;20441;-64
2023/08/05 12:06:35;;;;;;;3.92;2.88;;;23.50;99.90;;;;;;5073307;28;20147;-64
2023/08/05 12:09:01;;;;;;;4.20;2.80;;;23.50;99.90;;;;;;5073570;28;20349;-64
2023/08/05 12:11:27;;;;;;;4.05;2.72;;;23.50;99.90;;;;;;5065059;28;20056;-64
2023/08/05 12:13:54;;;;;;;5.20;2.72;;;23.50;99.90;;;;;;5075135;28;20052;-64
2023/08/05 12:16:20;;;;;;;4.60;2.60;;;23.50;99.90;;;;;;5072489;28;20057;-64
2023/08/05 12:18:47;;;;;;;3.63;2.78;;;23.60;99.90;;;;;;5039365;28;20052;-65
2023/08/05 12:21:14;;;;;;;3.95;2.70;;;23.50;99.90;;;;;;5055937;28;20049;-65
2023/08/05 12:23:41;;;;;;;4.28;3.00;;;23.50;99.90;;;;;;5055736;28;20048;-65
2023/08/05 12:26:08;;;;;;;4.72;2.95;;;23.40;99.90;;;;;;5055699;28;20087;-64
2023/08/05 12:28:34;;;;;;;4.35;2.88;;;23.50;99.90;;;;;;5073077;28;20048;-64
2023/08/05 12:31:01;;;;;;;5.03;2.67;;;23.50;99.90;;;;;;5075709;28;20084;-64
2023/08/05 12:33:27;;;;;;;3.75;2.85;;;23.70;99.90;;;;;;5075384;28;20044;-64
2023/08/05 12:35:53;;;;;;;3.33;2.63;;;23.70;99.90;;;;;;5074259;28;20059;-65
2023/08/05 12:38:20;;;;;;;5.00;3.03;;;23.60;99.90;;;;;;5074524;28;20049;-64
2023/08/05 12:40:46;;;;;;;3.25;2.72;;;23.50;99.90;;;;;;5075409;28;20056;-64
2023/08/05 12:43:12;;;;;;;3.80;2.70;;;23.50;99.90;;;;;;5074939;28;20036;-64
2023/08/05 12:45:39;;;;;;;3.40;3.05;;;23.40;99.90;;;;;;5075114;28;20045;-65
2023/08/05 12:48:05;;;;;;;3.55;2.40;;;23.30;99.90;;;;;;5062251;28;20048;-64
2023/08/05 12:50:31;;;;;;;5.07;2.70;;;23.20;99.90;;;;;;5055238;28;20099;-64
2023/08/05 12:52:58;;;;;;;3.47;2.83;;;23.20;99.90;;;;;;5055338;28;20059;-65